| time (UTC) | temp F | wind direction | speed knots | gust knots | rain 1hr in | rain 24hr in | rain mn in | humidity % | barometer mb |
| 20260506023353 | 60 | 87 | 0.0 | 0.9 | 0.00 | 0.00 | 0.00 | 76 | 1013.7 |
| 20260506022854 | 60 | 87 | 0.0 | 0.9 | 0.00 | 0.00 | 0.00 | 76 | 1013.8 |
| 20260506022357 | 60 | 87 | 0.0 | 0.0 | 0.00 | 0.00 | 0.00 | 77 | 1013.9 |
| 20260506021857 | 60 | 87 | 0.0 | 1.7 | 0.00 | 0.00 | 0.00 | 77 | 1013.8 |
| 20260506021354 | 60 | 87 | 0.0 | 1.7 | 0.00 | 0.00 | 0.00 | 76 | 1013.8 |
| 20260506020848 | 60 | 87 | 0.0 | 1.7 | 0.00 | 0.00 | 0.00 | 75 | 1013.8 |
| 20260506020342 | 60 | 87 | 0.0 | 0.0 | 0.00 | 0.00 | 0.00 | 75 | 1013.7 |
| 20260506015834 | 60 | 87 | 0.0 | 0.0 | 0.00 | 0.00 | 0.00 | 76 | 1013.6 |
| 20260506015331 | 60 | 87 | 0.0 | 0.0 | 0.00 | 0.00 | 0.00 | 76 | 1013.7 |
| 20260506014824 | 60 | 87 | 0.0 | 1.7 | 0.00 | 0.00 | 0.00 | 76 | 1013.6 |
| 20260506014318 | 60 | 87 | 0.0 | 1.7 | 0.00 | 0.00 | 0.00 | 75 | 1013.5 |
| 20260506013813 | 60 | 87 | 0.0 | 1.7 | 0.00 | 0.00 | 0.00 | 74 | 1013.7 |
| 20260506013310 | 60 | 87 | 0.0 | 1.7 | 0.00 | 0.00 | 0.00 | 73 | 1013.6 |
| 20260506012809 | 60 | 87 | 0.0 | 0.9 | 0.00 | 0.00 | 0.00 | 72 | 1013.3 |
| 20260506012308 | 60 | 87 | 0.0 | 0.9 | 0.00 | 0.00 | 0.00 | 73 | 1013.4 |
| 20260506011803 | 61 | 87 | 0.0 | 0.9 | 0.00 | 0.00 | 0.00 | 72 | 1013.3 |
| 20260506011303 | 61 | 87 | 0.0 | 0.9 | 0.00 | 0.00 | 0.00 | 72 | 1013.3 |
| 20260506010805 | 61 | 87 | 0.0 | 0.9 | 0.00 | 0.00 | 0.00 | 71 | 1013.4 |
| 20260506010302 | 62 | 87 | 0.0 | 0.9 | 0.00 | 0.00 | 0.00 | 70 | 1013.4 |
| 20260506005800 | 62 | 87 | 0.0 | 0.9 | 0.00 | 0.00 | 0.00 | 69 | 1013.4 |
| 20260506005259 | 63 | 87 | 0.0 | 0.9 | 0.00 | 0.00 | 0.00 | 68 | 1013.4 |
| 20260506004800 | 63 | 87 | 0.0 | 0.9 | 0.00 | 0.00 | 0.00 | 67 | 1013.3 |
| 20260506004258 | 64 | 87 | 0.0 | 0.9 | 0.00 | 0.00 | 0.00 | 65 | 1013.5 |
| 20260506004242 | 64 | 87 | 0.0 | 0.9 | 0.00 | 0.00 | 0.00 | 64 | 1013.5 |
| 20260506003256 | 65 | 87 | 0.0 | 0.9 | 0.00 | 0.00 | 0.00 | 62 | 1013.5 |
| 20260506002751 | 65 | 88 | 0.9 | 1.7 | 0.00 | 0.00 | 0.00 | 62 | 1013.5 |
| 20260506002252 | 66 | 87 | 0.9 | 1.7 | 0.00 | 0.00 | 0.00 | 62 | 1013.4 |
| 20260506001751 | 66 | 87 | 0.9 | 1.7 | 0.00 | 0.00 | 0.00 | 62 | 1013.3 |
| 20260506001737 | 67 | 87 | 0.9 | 1.7 | 0.00 | 0.00 | 0.00 | 63 | 1013.1 |
| 20260506001016 | 67 | 87 | 0.9 | 1.7 | 0.00 | 0.00 | 0.00 | 62 | 1013.2 |
| 20260506000251 | 67 | 87 | 0.9 | 1.7 | 0.00 | 0.00 | 0.00 | 62 | 1013.3 |
| 20260505235745 | 68 | 87 | 0.0 | 1.7 | 0.00 | 0.00 | 0.00 | 62 | 1013.4 |
| 20260505235240 | 68 | 87 | 0.0 | 0.9 | 0.00 | 0.00 | 0.00 | 61 | 1013.4 |
| 20260505234734 | 68 | 87 | 0.0 | 0.9 | 0.00 | 0.00 | 0.00 | 59 | 1013.3 |
| 20260505234227 | 69 | 87 | 0.0 | 0.9 | 0.00 | 0.00 | 0.00 | 59 | 1013.2 |
| 20260505233943 | 69 | 87 | 0.0 | 0.9 | 0.00 | 0.00 | 0.00 | 59 | 1013.2 |
| 20260505233215 | 69 | 87 | 0.0 | 0.9 | 0.00 | 0.00 | 0.00 | 58 | 1013.2 |
| 20260505232708 | 69 | 87 | 0.9 | 0.9 | 0.00 | 0.00 | 0.00 | 56 | 1013.1 |
| 20260505232204 | 69 | 87 | 0.9 | 0.9 | 0.00 | 0.00 | 0.00 | 54 | 1013.3 |
| 20260505231658 | 70 | 87 | 0.0 | 1.7 | 0.00 | 0.00 | 0.00 | 54 | 1013.4 |
| 20260505231152 | 70 | 87 | 0.0 | 2.6 | 0.00 | 0.00 | 0.00 | 53 | 1013.5 |
| 20260505230646 | 70 | 87 | 0.9 | 2.6 | 0.00 | 0.00 | 0.00 | 53 | 1013.4 |
| 20260505230140 | 70 | 86 | 0.9 | 2.6 | 0.00 | 0.00 | 0.00 | 55 | 1013.4 |
| 20260505225634 | 71 | 86 | 0.9 | 2.6 | 0.00 | 0.00 | 0.00 | 54 | 1013.4 |
| 20260505225128 | 71 | 104 | 0.9 | 3.5 | 0.00 | 0.00 | 0.00 | 52 | 1013.4 |
| 20260505224621 | 71 | 104 | 0.9 | 3.5 | 0.00 | 0.00 | 0.00 | 52 | 1013.5 |
| 20260505224116 | 71 | 55 | 0.9 | 2.6 | 0.00 | 0.00 | 0.00 | 51 | 1013.4 |
| 20260505223832 | 72 | 84 | 0.9 | 1.7 | 0.00 | 0.00 | 0.00 | 51 | 1013.4 |
| 20260505223103 | 72 | 84 | 0.0 | 0.9 | 0.00 | 0.00 | 0.00 | 49 | 1013.5 |
| 20260505222558 | 72 | 84 | 0.9 | 5.2 | 0.00 | 0.00 | 0.00 | 48 | 1013.6 |
| 20260505222050 | 72 | 84 | 0.9 | 5.2 | 0.00 | 0.00 | 0.00 | 45 | 1013.6 |
| 20260505221818 | 72 | 117 | 0.9 | 2.6 | 0.00 | 0.00 | 0.00 | 44 | 1013.6 |
| 20260505221040 | 72 | 102 | 0.9 | 1.7 | 0.00 | 0.00 | 0.00 | 47 | 1013.6 |
| 20260505220534 | 73 | 104 | 1.7 | 7.8 | 0.00 | 0.00 | 0.00 | 45 | 1013.6 |
| 20260505220028 | 73 | 104 | 1.7 | 7.8 | 0.00 | 0.00 | 0.00 | 41 | 1013.3 |
| 20260505215523 | 73 | 113 | 0.9 | 4.3 | 0.00 | 0.00 | 0.00 | 44 | 1013.2 |
| 20260505215017 | 74 | 123 | 1.7 | 5.2 | 0.00 | 0.00 | 0.00 | 46 | 1013.2 |
| 20260505214731 | 74 | 129 | 1.7 | 5.2 | 0.00 | 0.00 | 0.00 | 46 | 1013.5 |
| 20260505214225 | 74 | 101 | 0.9 | 2.6 | 0.00 | 0.00 | 0.00 | 44 | 1013.4 |
| 20260505213718 | 74 | 107 | 1.7 | 5.2 | 0.00 | 0.00 | 0.00 | 45 | 1013.3 |
| 20260505212951 | 74 | 355 | 1.7 | 5.2 | 0.00 | 0.00 | 0.00 | 44 | 1013.4 |
| 20260505212445 | 74 | 82 | 1.7 | 6.1 | 0.00 | 0.00 | 0.00 | 43 | 1013.3 |
| 20260505211938 | 75 | 125 | 2.6 | 10.4 | 0.00 | 0.00 | 0.00 | 41 | 1013.4 |
| 20260505211434 | 74 | 115 | 2.6 | 10.4 | 0.00 | 0.00 | 0.00 | 41 | 1013.4 |
| 20260505210929 | 74 | 169 | 1.7 | 7.8 | 0.00 | 0.00 | 0.00 | 39 | 1013.4 |
| 20260505210423 | 74 | 112 | 1.7 | 10.4 | 0.00 | 0.00 | 0.00 | 41 | 1013.6 |
| 20260505210137 | 74 | 82 | 2.6 | 10.4 | 0.00 | 0.00 | 0.00 | 38 | 1013.5 |
| 20260505205410 | 74 | 96 | 2.6 | 8.7 | 0.00 | 0.00 | 0.00 | 41 | 1013.5 |
| 20260505204904 | 74 | 113 | 1.7 | 7.8 | 0.00 | 0.00 | 0.00 | 40 | 1013.5 |
| 20260505204624 | 74 | 73 | 1.7 | 10.4 | 0.00 | 0.00 | 0.00 | 45 | 1013.5 |
| 20260505204116 | 74 | 111 | 1.7 | 10.4 | 0.00 | 0.00 | 0.00 | 43 | 1013.5 |
| 20260505203346 | 74 | 111 | 1.7 | 11.3 | 0.00 | 0.00 | 0.00 | 43 | 1013.4 |
| 20260505202840 | 75 | 161 | 2.6 | 11.3 | 0.00 | 0.00 | 0.00 | 42 | 1013.4 |
| 20260505202332 | 75 | 49 | 2.6 | 7.0 | 0.00 | 0.00 | 0.00 | 42 | 1013.4 |
| 20260505201827 | 75 | 88 | 2.6 | 8.7 | 0.00 | 0.00 | 0.00 | 44 | 1013.6 |
| 20260505201552 | 75 | 213 | 2.6 | 8.7 | 0.00 | 0.00 | 0.00 | 40 | 1013.7 |
| 20260505200814 | 76 | 206 | 1.7 | 7.8 | 0.00 | 0.00 | 0.00 | 41 | 1013.6 |
| 20260505200309 | 77 | 78 | 1.7 | 7.8 | 0.00 | 0.00 | 0.00 | 39 | 1013.9 |
| 20260505195805 | 76 | 103 | 1.7 | 7.8 | 0.00 | 0.00 | 0.00 | 40 | 1013.7 |
| 20260505195258 | 76 | 348 | 1.7 | 7.0 | 0.00 | 0.00 | 0.00 | 40 | 1013.7 |
| 20260505194751 | 76 | 323 | 1.7 | 7.0 | 0.00 | 0.00 | 0.00 | 45 | 1013.8 |
| 20260505194246 | 76 | 121 | 2.6 | 7.8 | 0.00 | 0.00 | 0.00 | 39 | 1013.9 |
| 20260505194227 | 76 | 105 | 1.7 | 8.7 | 0.00 | 0.00 | 0.00 | 39 | 1014.0 |
| 20260505193233 | 76 | 107 | 1.7 | 8.7 | 0.00 | 0.00 | 0.00 | 40 | 1014.0 |
| 20260505192729 | 75 | 342 | 2.6 | 9.6 | 0.00 | 0.00 | 0.00 | 41 | 1014.0 |
| 20260505192220 | 76 | 124 | 2.6 | 9.6 | 0.00 | 0.00 | 0.00 | 40 | 1014.2 |
| 20260505191716 | 76 | 128 | 1.7 | 7.8 | 0.00 | 0.00 | 0.00 | 44 | 1014.2 |
| 20260505191209 | 76 | 100 | 1.7 | 6.1 | 0.00 | 0.00 | 0.00 | 44 | 1014.3 |
| 20260505190704 | 76 | 101 | 2.6 | 11.3 | 0.00 | 0.00 | 0.00 | 43 | 1014.6 |
| 20260505190159 | 75 | 142 | 2.6 | 11.3 | 0.00 | 0.00 | 0.00 | 44 | 1014.6 |
| 20260505185917 | 75 | 338 | 2.6 | 7.8 | 0.00 | 0.00 | 0.00 | 47 | 1014.6 |
| 20260505185156 | 75 | 59 | 2.6 | 7.8 | 0.00 | 0.00 | 0.00 | 41 | 1014.7 |
| 20260505184655 | 75 | 159 | 2.6 | 7.8 | 0.00 | 0.00 | 0.00 | 45 | 1014.7 |
| 20260505184156 | 75 | 59 | 1.7 | 7.0 | 0.00 | 0.00 | 0.00 | 41 | 1014.6 |
| 20260505183655 | 75 | 189 | 1.7 | 7.8 | 0.00 | 0.00 | 0.00 | 43 | 1014.8 |
| 20260505183418 | 75 | 207 | 2.6 | 7.8 | 0.00 | 0.00 | 0.00 | 41 | 1014.7 |
| 20260505182655 | 75 | 131 | 2.6 | 7.8 | 0.00 | 0.00 | 0.00 | 40 | 1014.9 |
| 20260505182155 | 75 | 105 | 2.6 | 8.7 | 0.00 | 0.00 | 0.00 | 40 | 1014.9 |
| 20260505181654 | 75 | 61 | 1.7 | 8.7 | 0.00 | 0.00 | 0.00 | 41 | 1015.1 |
| 20260505181156 | 74 | 215 | 2.6 | 9.6 | 0.00 | 0.00 | 0.00 | 41 | 1015.1 |
| 20260505180655 | 74 | 107 | 3.5 | 10.4 | 0.00 | 0.00 | 0.00 | 41 | 1015.3 |
| 20260505180153 | 74 | 102 | 2.6 | 10.4 | 0.00 | 0.00 | 0.00 | 43 | 1015.2 |
| 20260505175653 | 74 | 128 | 3.5 | 11.3 | 0.00 | 0.00 | 0.00 | 43 | 1015.5 |
| 20260505175153 | 74 | 46 | 3.5 | 11.3 | 0.00 | 0.00 | 0.00 | 39 | 1015.7 |
| 20260505174919 | 74 | 104 | 2.6 | 10.4 | 0.00 | 0.00 | 0.00 | 43 | 1015.6 |
| 20260505174421 | 74 | 130 | 2.6 | 7.0 | 0.00 | 0.00 | 0.00 | 43 | 1015.7 |
| 20260505173656 | 73 | 145 | 2.6 | 6.1 | 0.00 | 0.00 | 0.00 | 44 | 1015.7 |
| 20260505173413 | 73 | 63 | 2.6 | 7.0 | 0.00 | 0.00 | 0.00 | 47 | 1015.7 |
| 20260505172644 | 73 | 214 | 2.6 | 7.8 | 0.00 | 0.00 | 0.00 | 47 | 1015.6 |
| 20260505172137 | 73 | 107 | 2.6 | 8.7 | 0.00 | 0.00 | 0.00 | 49 | 1015.8 |
| 20260505171633 | 73 | 293 | 2.6 | 8.7 | 0.00 | 0.00 | 0.00 | 48 | 1015.9 |
| 20260505171126 | 73 | 101 | 2.6 | 9.6 | 0.00 | 0.00 | 0.00 | 47 | 1015.9 |
| 20260505171034 | 73 | 136 | 3.5 | 10.4 | 0.00 | 0.00 | 0.00 | 46 | 1015.8 |
| 20260505170655 | 73 | 232 | 2.6 | 9.6 | 0.00 | 0.00 | 0.00 | 46 | 1015.8 |
| 20260505170204 | 73 | 26 | 3.5 | 7.0 | 0.00 | 0.00 | 0.00 | 45 | 1015.8 |
| 20260505165114 | 73 | 124 | 2.6 | 10.4 | 0.00 | 0.00 | 0.00 | 43 | 1015.8 |
| 20260505165057 | 73 | 146 | 2.6 | 8.7 | 0.00 | 0.00 | 0.00 | 44 | 1015.7 |
| 20260505164111 | 72 | 138 | 1.7 | 8.7 | 0.00 | 0.00 | 0.00 | 45 | 1015.8 |
| 20260505163612 | 72 | 348 | 2.6 | 7.8 | 0.00 | 0.00 | 0.00 | 47 | 1015.8 |
| 20260505163109 | 72 | 105 | 3.5 | 8.7 | 0.00 | 0.00 | 0.00 | 47 | 1015.9 |
| 20260505162608 | 72 | 138 | 2.6 | 11.3 | 0.00 | 0.00 | 0.00 | 46 | 1015.9 |
| 20260505162111 | 72 | 113 | 2.6 | 11.3 | 0.00 | 0.00 | 0.00 | 48 | 1016.1 |
| 20260505161610 | 72 | 74 | 2.6 | 7.8 | 0.00 | 0.00 | 0.00 | 45 | 1016.0 |
| 20260505161109 | 72 | 103 | 2.6 | 7.8 | 0.00 | 0.00 | 0.00 | 48 | 1016.0 |
| 20260505160608 | 71 | 108 | 1.7 | 6.1 | 0.00 | 0.00 | 0.00 | 49 | 1015.9 |
| 20260505160110 | 71 | 30 | 2.6 | 7.8 | 0.00 | 0.00 | 0.00 | 47 | 1016.0 |
| 20260505153334 | 70 | 119 | 1.7 | 5.2 | 0.00 | 0.00 | 0.00 | 58 | 1016.1 |
| 20260505152606 | 69 | 38 | 1.7 | 5.2 | 0.00 | 0.00 | 0.00 | 55 | 1016.2 |
| 20260505152105 | 69 | 182 | 0.9 | 5.2 | 0.00 | 0.00 | 0.00 | 60 | 1016.3 |
| 20260505151604 | 69 | 177 | 1.7 | 5.2 | 0.00 | 0.00 | 0.00 | 58 | 1016.3 |
| 20260505151106 | 69 | 135 | 1.7 | 3.5 | 0.00 | 0.00 | 0.00 | 57 | 1016.5 |
| 20260505150601 | 68 | 65 | 1.7 | 3.5 | 0.00 | 0.00 | 0.00 | 60 | 1016.5 |
| 20260505140601 | 65 | 334 | 0.9 | 3.5 | 0.00 | 0.00 | 0.00 | 60 | 1016.1 |
| 20260505125002 | 51 | 315 | 0.0 | 0.9 | 0.00 | 0.00 | 0.00 | 91 | 1015.7 |
| 20260505124456 | 50 | 315 | 0.0 | 1.7 | 0.00 | 0.00 | 0.00 | 91 | 1015.6 |
| 20260505123949 | 50 | 311 | 0.9 | 1.7 | 0.00 | 0.00 | 0.00 | 92 | 1015.6 |
| 20260505123444 | 49 | 0 | 0.0 | 1.7 | 0.00 | 0.00 | 0.00 | 92 | 1015.6 |
| 20260505123203 | 49 | 313 | 0.0 | 3.5 | 0.00 | 0.00 | 0.00 | 92 | 1015.7 |
| 20260505122431 | 48 | 313 | 0.9 | 3.5 | 0.00 | 0.00 | 0.00 | 93 | 1015.6 |
| 20260505121926 | 47 | 313 | 0.0 | 2.6 | 0.00 | 0.00 | 0.00 | 92 | 1015.5 |
| 20260505121420 | 47 | 107 | 0.0 | 0.0 | 0.00 | 0.00 | 0.00 | 92 | 1015.6 |
| 20260505120913 | 46 | 106 | 0.0 | 0.0 | 0.00 | 0.00 | 0.00 | 92 | 1015.7 |
| 20260505120409 | 46 | 107 | 0.0 | 0.0 | 0.00 | 0.00 | 0.00 | 92 | 1015.7 |
| 20260505120130 | 46 | 107 | 0.0 | 0.0 | 0.00 | 0.00 | 0.00 | 92 | 1015.5 |
| 20260505115356 | 45 | 106 | 0.0 | 0.0 | 0.00 | 0.00 | 0.00 | 92 | 1015.4 |
| 20260505114851 | 45 | 106 | 0.0 | 0.0 | 0.00 | 0.00 | 0.00 | 92 | 1015.4 |
| 20260505114343 | 45 | 106 | 0.0 | 0.0 | 0.00 | 0.00 | 0.00 | 92 | 1015.1 |
| 20260505113838 | 44 | 106 | 0.0 | 0.0 | 0.00 | 0.00 | 0.00 | 92 | 1015.0 |
| 20260505113333 | 44 | 106 | 0.0 | 0.0 | 0.00 | 0.00 | 0.00 | 92 | 1014.9 |
| 20260505112824 | 44 | 106 | 0.0 | 0.0 | 0.00 | 0.00 | 0.00 | 91 | 1014.9 |
| 20260505112319 | 44 | 106 | 0.0 | 0.0 | 0.00 | 0.00 | 0.00 | 91 | 1014.7 |
| 20260505111815 | 44 | 106 | 0.0 | 0.0 | 0.00 | 0.00 | 0.00 | 90 | 1014.7 |
| 20260505111307 | 44 | 106 | 0.0 | 0.0 | 0.00 | 0.00 | 0.00 | 90 | 1014.7 |
| 20260505110802 | 44 | 106 | 0.0 | 0.0 | 0.00 | 0.00 | 0.00 | 90 | 1014.7 |
| 20260505110256 | 44 | 106 | 0.0 | 0.0 | 0.00 | 0.00 | 0.00 | 90 | 1014.7 |
| 20260505102208 | 44 | 106 | 0.0 | 0.0 | 0.00 | 0.00 | 0.00 | 90 | 1014.3 |
| 20260505101702 | 44 | 106 | 0.0 | 0.0 | 0.00 | 0.00 | 0.00 | 90 | 1014.4 |
| 20260505101156 | 44 | 106 | 0.0 | 0.0 | 0.00 | 0.00 | 0.00 | 89 | 1014.6 |
| 20260505100650 | 44 | 106 | 0.0 | 0.0 | 0.00 | 0.00 | 0.00 | 90 | 1014.7 |
| 20260505100359 | 44 | 106 | 0.0 | 0.0 | 0.00 | 0.00 | 0.00 | 90 | 1014.7 |
| 20260505095638 | 44 | 106 | 0.0 | 0.0 | 0.00 | 0.00 | 0.00 | 90 | 1014.7 |
| 20260505095132 | 44 | 106 | 0.0 | 0.0 | 0.00 | 0.00 | 0.00 | 90 | 1014.6 |
| 20260505094626 | 44 | 106 | 0.0 | 0.0 | 0.00 | 0.00 | 0.00 | 89 | 1014.7 |
| 20260505094121 | 44 | 106 | 0.0 | 0.0 | 0.00 | 0.00 | 0.00 | 90 | 1014.7 |
| 20260505093614 | 44 | 106 | 0.0 | 0.0 | 0.00 | 0.00 | 0.00 | 90 | 1014.7 |
| 20260505093108 | 44 | 106 | 0.0 | 0.0 | 0.00 | 0.00 | 0.00 | 89 | 1014.6 |
| 20260505092602 | 45 | 106 | 0.0 | 0.0 | 0.00 | 0.00 | 0.00 | 90 | 1014.8 |
| 20260505092056 | 44 | 106 | 0.0 | 0.0 | 0.00 | 0.00 | 0.00 | 90 | 1014.7 |
| 20260505091549 | 44 | 106 | 0.0 | 0.0 | 0.00 | 0.00 | 0.00 | 90 | 1014.8 |
| 20260505091045 | 44 | 106 | 0.0 | 0.0 | 0.00 | 0.00 | 0.00 | 90 | 1014.8 |
| 20260505090801 | 44 | 106 | 0.0 | 0.0 | 0.00 | 0.00 | 0.00 | 90 | 1014.9 |
| 20260505090032 | 44 | 106 | 0.0 | 0.9 | 0.00 | 0.00 | 0.00 | 89 | 1014.8 |
| 20260505085526 | 44 | 106 | 0.0 | 0.9 | 0.00 | 0.00 | 0.00 | 89 | 1014.9 |
| 20260505085020 | 44 | 106 | 0.0 | 0.9 | 0.00 | 0.00 | 0.00 | 89 | 1014.9 |
| 20260505084513 | 44 | 109 | 0.0 | 0.0 | 0.00 | 0.00 | 0.00 | 89 | 1014.9 |
| 20260505084008 | 44 | 109 | 0.0 | 0.0 | 0.00 | 0.00 | 0.00 | 89 | 1015.0 |
| 20260505083502 | 45 | 109 | 0.0 | 0.9 | 0.00 | 0.00 | 0.00 | 89 | 1014.9 |
| 20260505082956 | 45 | 109 | 0.0 | 0.9 | 0.00 | 0.00 | 0.00 | 89 | 1015.0 |
| 20260505082448 | 45 | 109 | 0.0 | 0.9 | 0.00 | 0.00 | 0.00 | 89 | 1015.0 |
| 20260505081944 | 45 | 109 | 0.0 | 0.0 | 0.00 | 0.00 | 0.00 | 89 | 1014.9 |
| 20260505081437 | 45 | 109 | 0.0 | 0.0 | 0.00 | 0.00 | 0.00 | 89 | 1014.9 |
| 20260505080932 | 45 | 109 | 0.0 | 0.0 | 0.00 | 0.00 | 0.00 | 89 | 1015.0 |
| 20260505080426 | 45 | 109 | 0.0 | 0.9 | 0.00 | 0.00 | 0.00 | 89 | 1015.0 |
| 20260505075918 | 45 | 109 | 0.0 | 0.9 | 0.00 | 0.00 | 0.00 | 89 | 1014.9 |
| 20260505075641 | 45 | 109 | 0.0 | 0.9 | 0.00 | 0.00 | 0.00 | 89 | 1014.9 |
| 20260505075129 | 45 | 109 | 0.0 | 0.9 | 0.00 | 0.00 | 0.00 | 89 | 1015.0 |
| 20260505074402 | 45 | 109 | 0.0 | 0.9 | 0.00 | 0.00 | 0.00 | 88 | 1015.0 |
| 20260505073856 | 45 | 109 | 0.0 | 0.9 | 0.00 | 0.00 | 0.00 | 89 | 1014.9 |
| 20260505073349 | 46 | 109 | 0.0 | 0.9 | 0.00 | 0.00 | 0.00 | 89 | 1014.9 |
| 20260505072843 | 46 | 109 | 0.0 | 0.9 | 0.00 | 0.00 | 0.00 | 88 | 1015.0 |
| 20260505072338 | 46 | 109 | 0.0 | 0.9 | 0.00 | 0.00 | 0.00 | 88 | 1015.0 |
| 20260505071832 | 46 | 109 | 0.0 | 0.0 | 0.00 | 0.00 | 0.00 | 88 | 1014.9 |
| 20260505071531 | 46 | 109 | 0.0 | 0.0 | 0.00 | 0.00 | 0.00 | 88 | 1014.9 |
| 20260505071415 | 46 | 109 | 0.0 | 0.0 | 0.00 | 0.00 | 0.00 | 88 | 1015.0 |
| 20260505070315 | 46 | 109 | 0.0 | 0.0 | 0.00 | 0.00 | 0.00 | 88 | 1014.9 |
| 20260505065808 | 46 | 109 | 0.0 | 0.9 | 0.00 | 0.00 | 0.00 | 88 | 1014.9 |
| 20260505065304 | 46 | 109 | 0.0 | 0.9 | 0.00 | 0.00 | 0.00 | 88 | 1015.0 |
| 20260505064755 | 46 | 109 | 0.0 | 0.9 | 0.00 | 0.00 | 0.00 | 87 | 1015.0 |
| 20260505064251 | 47 | 109 | 0.0 | 0.0 | 0.00 | 0.00 | 0.00 | 87 | 1014.9 |
| 20260505063745 | 47 | 109 | 0.0 | 0.0 | 0.00 | 0.00 | 0.00 | 87 | 1014.8 |
| 20260505063238 | 47 | 109 | 0.0 | 0.0 | 0.00 | 0.00 | 0.00 | 87 | 1014.8 |
| 20260505062955 | 47 | 109 | 0.0 | 0.9 | 0.00 | 0.00 | 0.00 | 87 | 1014.9 |
| 20260505062226 | 47 | 109 | 0.0 | 0.9 | 0.00 | 0.00 | 0.00 | 87 | 1015.0 |
| 20260505061720 | 47 | 109 | 0.0 | 0.9 | 0.00 | 0.00 | 0.00 | 87 | 1015.1 |
| 20260505061438 | 47 | 109 | 0.0 | 0.9 | 0.00 | 0.00 | 0.00 | 87 | 1015.1 |
| 20260505060708 | 47 | 109 | 0.0 | 0.9 | 0.00 | 0.00 | 0.00 | 87 | 1015.2 |
| 20260505060201 | 47 | 109 | 0.0 | 0.0 | 0.00 | 0.00 | 0.00 | 87 | 1015.2 |
| 20260505055916 | 47 | 109 | 0.0 | 0.0 | 0.00 | 0.00 | 0.00 | 87 | 1015.2 |
| 20260505055642 | 47 | 109 | 0.0 | 0.9 | 0.00 | 0.00 | 0.00 | 87 | 1015.3 |
| 20260505054642 | 47 | 109 | 0.0 | 0.9 | 0.00 | 0.00 | 0.00 | 87 | 1015.2 |
| 20260505054137 | 47 | 109 | 0.0 | 1.7 | 0.00 | 0.00 | 0.00 | 87 | 1015.2 |
| 20260505053632 | 47 | 109 | 0.0 | 1.7 | 0.00 | 0.00 | 0.00 | 87 | 1015.2 |
| 20260505053124 | 47 | 109 | 0.0 | 0.9 | 0.00 | 0.00 | 0.00 | 87 | 1015.2 |
| 20260505052841 | 47 | 109 | 0.0 | 1.7 | 0.00 | 0.00 | 0.00 | 87 | 1015.3 |
| 20260505052115 | 48 | 109 | 0.0 | 1.7 | 0.00 | 0.00 | 0.00 | 86 | 1015.3 |
| 20260505051607 | 48 | 109 | 0.0 | 0.9 | 0.00 | 0.00 | 0.00 | 86 | 1015.3 |
| 20260505051102 | 48 | 109 | 0.0 | 0.9 | 0.00 | 0.00 | 0.00 | 86 | 1015.2 |
| 20260505050823 | 48 | 109 | 0.0 | 0.9 | 0.00 | 0.00 | 0.00 | 86 | 1015.2 |
| 20260505041451 | 49 | 109 | 0.0 | 0.9 | 0.00 | 0.00 | 0.00 | 85 | 1015.1 |
| 20260505040952 | 50 | 109 | 0.0 | 0.0 | 0.00 | 0.00 | 0.00 | 85 | 1015.1 |
| 20260505040451 | 50 | 109 | 0.0 | 0.9 | 0.00 | 0.00 | 0.00 | 85 | 1015.1 |
| 20260505035947 | 50 | 109 | 0.0 | 0.9 | 0.00 | 0.00 | 0.00 | 84 | 1015.1 |
| 20260505035449 | 50 | 109 | 0.0 | 0.0 | 0.00 | 0.00 | 0.00 | 84 | 1015.1 |
| 20260505034946 | 50 | 109 | 0.0 | 0.0 | 0.00 | 0.00 | 0.00 | 84 | 1015.1 |
| 20260505034447 | 51 | 109 | 0.0 | 0.9 | 0.00 | 0.00 | 0.00 | 84 | 1015.2 |
| 20260505033944 | 51 | 109 | 0.0 | 0.9 | 0.00 | 0.00 | 0.00 | 84 | 1015.2 |
| 20260505033445 | 51 | 109 | 0.0 | 0.9 | 0.00 | 0.00 | 0.00 | 84 | 1015.2 |
| 20260505033436 | 51 | 109 | 0.0 | 0.9 | 0.00 | 0.00 | 0.00 | 84 | 1015.3 |
| 20260505032443 | 51 | 109 | 0.0 | 0.0 | 0.00 | 0.00 | 0.00 | 84 | 1015.4 |
| 20260505032204 | 51 | 109 | 0.0 | 0.9 | 0.00 | 0.00 | 0.00 | 83 | 1015.3 |
| 20260505031440 | 52 | 109 | 0.0 | 0.9 | 0.00 | 0.00 | 0.00 | 83 | 1015.3 |
| 20260505030933 | 52 | 109 | 0.0 | 0.0 | 0.00 | 0.00 | 0.00 | 83 | 1015.2 |
| 20260505030427 | 52 | 109 | 0.0 | 0.0 | 0.00 | 0.00 | 0.00 | 83 | 1015.3 |
| 20260505025925 | 52 | 109 | 0.0 | 0.0 | 0.00 | 0.00 | 0.00 | 83 | 1015.2 |
| 20260505025425 | 53 | 109 | 0.0 | 0.0 | 0.00 | 0.00 | 0.00 | 83 | 1015.2 |
| 20260505024926 | 53 | 109 | 0.0 | 0.0 | 0.00 | 0.00 | 0.00 | 82 | 1015.2 |
| 20260505024647 | 53 | 109 | 0.0 | 0.0 | 0.00 | 0.00 | 0.00 | 82 | 1015.2 |
| 20260505023923 | 53 | 109 | 0.0 | 0.0 | 0.00 | 0.00 | 0.00 | 81 | 1015.2 |